Terminal Aerodrome Forecast
Issued by NWS Austin/San Antonio, TX

Home | Current Version | Previous Version | Text Only | Print | Product List | Glossary On
Versions: 1 2 3 4 5 6 7 8 9 10 11 12 13 14 15 16 17 18 19 20 21 22 23 24
113
FTUS44 KEWX 221225 AAA
TAFAUS
TAF AMD
KAUS 221225Z 2212/2318 32013G23KT 4SM TSRA BKN015CB OVC025
      TEMPO 2212/2214 VRB20G30KT 2SM +TSRA OVC012CB
     FM221500 36015G25KT P6SM FEW040
     FM222300 36010KT P6SM SKC=

USA.gov is the U.S. government's official web portal to all federal, state and local government web resources and services.